createdAt,value
2023-04-20T00:00:30.613Z,100.00
2023-04-20T00:03:35.367Z,100.00
2023-04-20T00:06:31.889Z,100.00
2023-04-20T00:09:25.893Z,100.00
2023-04-20T00:12:18.350Z,100.00
2023-04-20T00:15:13.470Z,100.00
2023-04-20T00:17:59.431Z,100.00
2023-04-20T00:20:54.554Z,100.00
2023-04-20T00:23:52.122Z,100.00
2023-04-20T00:26:39.010Z,100.00
2023-04-20T00:29:20.282Z,100.00
2023-04-20T00:32:06.312Z,100.00
2023-04-20T00:34:42.316Z,100.00
2023-04-20T00:37:27.203Z,100.00
2023-04-20T00:40:05.312Z,100.00
2023-04-20T00:45:40.852Z,100.00
2023-04-20T00:48:29.008Z,100.00
2023-04-20T00:51:18.623Z,100.00
2023-04-20T00:54:07.544Z,100.00
2023-04-20T00:56:42.800Z,100.00
2023-04-20T01:02:19.223Z,100.00
2023-04-20T01:05:06.229Z,100.00
2023-04-20T01:07:51.194Z,100.00
2023-04-20T01:10:28.546Z,100.00
2023-04-20T01:13:02.490Z,100.00
2023-04-20T01:15:38.320Z,100.00
2023-04-20T01:18:23.968Z,100.00
2023-04-20T01:21:16.801Z,100.00
2023-04-20T01:24:09.900Z,100.00
2023-04-20T01:30:13.587Z,100.00
2023-04-20T01:33:20.111Z,100.00
2023-04-20T01:36:16.709Z,100.00
2023-04-20T01:39:11.304Z,100.00
2023-04-20T01:42:08.887Z,100.00
2023-04-20T01:45:03.657Z,100.00
2023-04-20T01:47:57.294Z,100.00
2023-04-20T01:50:54.090Z,100.00
2023-04-20T01:53:43.836Z,100.00
2023-04-20T01:56:56.669Z,100.00
2023-04-20T01:59:50.463Z,100.00
2023-04-20T02:02:40.358Z,100.00
2023-04-20T02:05:35.237Z,100.00
2023-04-20T02:08:28.383Z,100.00
2023-04-20T02:11:23.566Z,100.00
2023-04-20T02:14:15.166Z,100.00
2023-04-20T02:17:07.807Z,100.00
2023-04-20T02:20:15.806Z,100.00
2023-04-20T02:23:07.512Z,100.00
2023-04-20T02:26:05.139Z,100.00
2023-04-20T02:29:10.929Z,100.00
2023-04-20T02:32:06.312Z,100.00
2023-04-20T02:35:01.084Z,100.00
2023-04-20T02:37:57.316Z,100.00
2023-04-20T02:40:49.289Z,100.00
2023-04-20T02:43:41.644Z,100.00
2023-04-20T02:46:36.143Z,100.00
2023-04-20T02:49:30.259Z,100.00
2023-04-20T02:52:22.241Z,100.00
2023-04-20T02:55:03.595Z,100.00
2023-04-20T02:57:56.644Z,100.00
2023-04-20T03:00:48.440Z,100.00
2023-04-20T03:03:51.069Z,100.00
2023-04-20T03:06:45.066Z,100.00
2023-04-20T03:09:42.129Z,100.00
2023-04-20T03:12:35.901Z,100.00
2023-04-20T03:15:38.678Z,100.00
2023-04-20T03:18:32.776Z,100.00
2023-04-20T03:21:25.263Z,100.00
2023-04-20T03:24:31.296Z,100.00
2023-04-20T03:27:38.561Z,100.00
2023-04-20T03:30:35.146Z,100.00
2023-04-20T03:33:29.011Z,100.00
2023-04-20T03:36:31.651Z,100.00
2023-04-20T03:39:28.007Z,100.00
2023-04-20T03:42:21.417Z,100.00
2023-04-20T03:45:10.445Z,100.00
2023-04-20T03:48:09.222Z,100.00
2023-04-20T03:51:01.787Z,100.00
2023-04-20T03:56:55.089Z,100.00
2023-04-20T03:59:49.240Z,100.00
2023-04-20T04:03:02.431Z,100.00
2023-04-20T04:05:58.542Z,100.00
2023-04-20T04:08:51.322Z,100.00
2023-04-20T04:11:46.045Z,100.00
2023-04-20T04:14:37.740Z,100.00
2023-04-20T04:17:33.137Z,100.00
2023-04-20T04:20:29.384Z,100.00
2023-04-20T04:23:25.977Z,100.00
2023-04-20T04:26:19.411Z,100.00
2023-04-20T04:29:12.225Z,100.00
2023-04-20T04:32:13.879Z,100.00
2023-04-20T04:35:06.832Z,100.00
2023-04-20T04:38:04.713Z,100.00
2023-04-20T04:40:58.397Z,100.00
2023-04-20T04:43:53.874Z,100.00
2023-04-20T04:46:50.672Z,100.00
2023-04-20T04:49:48.955Z,100.00
2023-04-20T04:52:43.492Z,100.00
2023-04-20T04:55:38.296Z,100.00
2023-04-20T04:58:33.603Z,100.00
2023-04-20T05:01:26.897Z,100.00
2023-04-20T05:04:22.652Z,100.00
2023-04-20T05:07:16.659Z,100.00
2023-04-20T05:10:11.673Z,100.00
2023-04-20T05:13:07.734Z,100.00
2023-04-20T05:16:01.548Z,100.00
2023-04-20T05:18:54.034Z,100.00
2023-04-20T05:21:44.886Z,100.00
2023-04-20T05:24:36.920Z,100.00
2023-04-20T05:27:33.730Z,100.00
2023-04-20T05:30:41.350Z,100.00
2023-04-20T05:33:37.176Z,100.00
2023-04-20T05:36:41.617Z,100.00
2023-04-20T05:39:38.153Z,100.00
2023-04-20T05:42:32.330Z,100.00
2023-04-20T05:45:27.345Z,100.00
2023-04-20T05:48:22.415Z,100.00
2023-04-20T05:51:14.025Z,100.00
2023-04-20T05:54:17.767Z,100.00
2023-04-20T05:57:13.362Z,100.00
2023-04-20T06:00:07.757Z,100.00
2023-04-20T06:02:59.218Z,100.00
2023-04-20T06:05:54.524Z,100.00
2023-04-20T06:08:49.437Z,100.00
2023-04-20T06:11:41.391Z,100.00
2023-04-20T06:17:48.266Z,97.50
2023-04-20T06:20:43.086Z,96.60
2023-04-20T06:23:43.174Z,96.84
2023-04-20T06:26:36.548Z,96.83
2023-04-20T06:29:39.874Z,94.56
2023-04-20T06:32:28.695Z,91.62
2023-04-20T06:35:22.859Z,91.46
2023-04-20T06:38:19.389Z,89.66
2023-04-20T06:41:14.404Z,90.04
2023-04-20T06:44:06.719Z,89.43
2023-04-20T06:47:04.109Z,90.41
2023-04-20T06:50:11.162Z,90.13
2023-04-20T06:53:06.573Z,90.09
2023-04-20T06:56:06.192Z,89.24
2023-04-20T06:59:00.138Z,90.40
2023-04-20T07:01:52.359Z,85.21
2023-04-20T07:04:55.022Z,87.13
2023-04-20T07:07:47.204Z,86.26
2023-04-20T07:10:44.190Z,84.20
2023-04-20T07:13:34.126Z,85.17
2023-04-20T07:16:32.772Z,87.05
2023-04-20T07:19:24.519Z,88.15
2023-04-20T07:22:20.895Z,87.80
2023-04-20T07:25:37.372Z,85.55
2023-04-20T07:28:32.893Z,88.09
2023-04-20T07:31:23.349Z,86.59
2023-04-20T07:34:11.925Z,84.81
2023-04-20T07:37:15.323Z,86.43
2023-04-20T07:40:20.109Z,84.41
2023-04-20T07:43:23.507Z,84.79
2023-04-20T07:46:13.057Z,82.88
2023-04-20T07:49:08.590Z,80.63
2023-04-20T07:55:15.116Z,79.79
2023-04-20T07:58:09.677Z,77.85
2023-04-20T08:01:05.398Z,77.04
2023-04-20T08:03:58.567Z,76.98
2023-04-20T08:07:00.785Z,77.89
2023-04-20T08:09:53.874Z,78.19
2023-04-20T08:12:45.609Z,75.81
2023-04-20T08:15:40.378Z,76.17
2023-04-20T08:18:31.684Z,76.06
2023-04-20T08:21:26.229Z,72.59
2023-04-20T08:24:28.390Z,73.29
2023-04-20T08:27:19.571Z,74.37
2023-04-20T08:30:19.506Z,76.94
2023-04-20T08:33:13.876Z,75.87
2023-04-20T08:36:13.663Z,74.19
2023-04-20T08:39:43.573Z,74.66
2023-04-20T08:42:43.753Z,74.98
2023-04-20T08:45:10.792Z,72.54
2023-04-20T17:40:31.409Z,66.98
2023-04-20T17:42:58.398Z,67.47
2023-04-20T17:45:49.172Z,67.05
2023-04-20T17:48:48.988Z,68.57
2023-04-20T17:51:57.374Z,68.73
2023-04-20T17:55:02.567Z,68.96
2023-04-20T17:57:57.351Z,69.94
2023-04-20T18:00:48.206Z,70.47
2023-04-20T18:03:46.450Z,70.99
2023-04-20T18:06:41.247Z,70.26
2023-04-20T18:12:39.170Z,71.78
2023-04-20T18:15:26.067Z,72.80
2023-04-20T18:17:53.005Z,73.37
2023-04-20T18:20:20.085Z,74.68
2023-04-20T18:22:49.382Z,75.68
2023-04-20T18:25:20.699Z,74.29
2023-04-20T18:27:47.653Z,75.55
2023-04-20T18:30:15.217Z,74.32
2023-04-20T18:32:42.731Z,75.48
2023-04-20T18:35:11.423Z,76.68
2023-04-20T18:37:38.634Z,77.32
2023-04-20T18:40:09.944Z,77.16
2023-04-20T18:43:11.134Z,76.77
2023-04-20T18:45:38.065Z,76.85
2023-04-20T18:48:05.418Z,76.25
2023-04-20T18:50:32.398Z,76.07
2023-04-20T18:53:00.835Z,76.44
2023-04-20T18:55:30.653Z,76.42
2023-04-20T18:58:00.714Z,77.72
2023-04-20T19:00:29.545Z,79.09
2023-04-20T19:02:58.552Z,78.70
2023-04-20T19:05:27.825Z,79.79
2023-04-20T19:07:56.662Z,80.07
2023-04-20T19:10:23.755Z,81.17
2023-04-20T19:12:50.790Z,81.42
2023-04-20T19:15:26.992Z,82.35
2023-04-20T19:17:56.157Z,83.41
2023-04-20T19:20:26.518Z,84.52
2023-04-20T19:22:53.440Z,84.95
2023-04-20T19:25:20.722Z,84.29
2023-04-20T19:27:47.695Z,83.28
2023-04-20T19:30:14.752Z,82.97
2023-04-20T19:32:41.729Z,85.19
2023-04-20T19:35:08.770Z,85.72
2023-04-20T19:37:35.780Z,86.48
2023-04-20T19:40:02.804Z,87.12
2023-04-20T19:42:29.767Z,87.69
2023-04-20T19:44:56.778Z,88.44
2023-04-20T19:47:23.919Z,88.40
2023-04-20T19:49:51.032Z,88.63
2023-04-20T19:52:17.984Z,89.27
2023-04-20T19:54:44.874Z,90.13
2023-04-20T19:57:12.012Z,90.66
2023-04-20T19:59:40.329Z,91.32
2023-04-20T20:02:07.780Z,93.18
2023-04-20T20:04:38.036Z,93.18
2023-04-20T20:07:05.180Z,94.51
2023-04-20T20:12:51.192Z,94.75
2023-04-20T20:15:18.120Z,94.02
2023-04-20T20:17:46.783Z,93.62
2023-04-20T20:20:15.574Z,92.46
2023-04-20T20:22:48.372Z,93.26
2023-04-20T20:25:16.205Z,93.40
2023-04-20T20:27:43.179Z,92.81
2023-04-20T20:30:10.860Z,93.17
2023-04-20T20:32:37.826Z,92.52
2023-04-20T20:35:05.670Z,91.29
2023-04-20T20:37:34.995Z,90.94
2023-04-20T20:40:07.098Z,92.56
2023-04-20T20:42:34.415Z,91.89
2023-04-20T20:45:01.381Z,90.51
2023-04-20T20:47:28.375Z,89.49
2023-04-20T20:49:55.273Z,89.46
2023-04-20T20:52:22.377Z,89.26
2023-04-20T20:54:49.294Z,89.38
2023-04-20T20:57:16.166Z,88.65
2023-04-20T20:59:43.255Z,88.06
2023-04-20T21:02:10.447Z,88.30
2023-04-20T21:04:37.455Z,88.42
2023-04-20T21:07:04.372Z,89.16
2023-04-20T21:09:31.335Z,88.48
2023-04-20T21:12:01.254Z,89.82
2023-04-20T21:14:28.313Z,88.98
2023-04-20T21:16:55.350Z,89.18
2023-04-20T21:19:22.449Z,89.18
2023-04-20T21:21:49.387Z,89.72
2023-04-20T21:24:16.483Z,89.61
2023-04-20T21:26:43.401Z,89.36
2023-04-20T21:29:10.356Z,89.71
2023-04-20T21:31:37.304Z,90.55
2023-04-20T21:34:04.276Z,90.47
2023-04-20T21:36:31.149Z,90.34
2023-04-20T21:38:58.064Z,90.40
2023-04-20T21:41:26.880Z,90.93
2023-04-20T21:43:53.806Z,91.49
2023-04-20T21:46:20.785Z,92.15
2023-04-20T21:48:47.947Z,92.36
2023-04-20T21:51:18.853Z,93.17
2023-04-20T21:53:46.127Z,93.59
2023-04-20T21:56:15.068Z,93.64
2023-04-20T21:58:42.128Z,94.28
2023-04-20T22:01:09.103Z,94.71
2023-04-20T22:03:37.547Z,95.07
2023-04-20T22:06:05.267Z,95.40
2023-04-20T22:08:32.296Z,95.98
2023-04-20T22:10:59.350Z,96.36
2023-04-20T22:13:26.480Z,96.99
2023-04-20T22:15:53.533Z,97.75
2023-04-20T22:18:20.572Z,98.06
2023-04-20T22:20:47.631Z,98.07
2023-04-20T22:23:14.593Z,98.47
2023-04-20T22:25:43.096Z,98.68
2023-04-20T22:28:11.444Z,99.08
2023-04-20T22:30:38.404Z,99.02
2023-04-20T22:33:05.456Z,99.34
2023-04-20T22:35:32.350Z,99.70
2023-04-20T22:37:59.637Z,99.70
2023-04-20T22:40:27.288Z,100.00
2023-04-20T22:42:54.241Z,99.70
2023-04-20T22:45:22.144Z,100.00
2023-04-20T22:47:49.113Z,100.00
2023-04-20T22:50:16.395Z,100.00
2023-04-20T22:52:43.438Z,100.00
2023-04-20T22:55:12.032Z,100.00
2023-04-20T22:57:39.388Z,100.00
2023-04-20T23:00:10.713Z,100.00
2023-04-20T23:02:38.072Z,100.00
2023-04-20T23:05:06.127Z,99.75
2023-04-20T23:07:33.608Z,99.11
2023-04-20T23:10:00.709Z,98.75
2023-04-20T23:12:29.691Z,98.27
2023-04-20T23:14:56.915Z,98.76
2023-04-20T23:17:23.891Z,98.85
2023-04-20T23:19:51.207Z,99.16
2023-04-20T23:22:18.430Z,98.84
2023-04-20T23:24:45.288Z,98.94
2023-04-20T23:27:12.244Z,98.81
2023-04-20T23:29:39.103Z,99.07
2023-04-20T23:32:06.253Z,99.35
2023-04-20T23:34:33.210Z,99.90
2023-04-20T23:37:00.124Z,99.59
2023-04-20T23:39:27.040Z,100.00
2023-04-20T23:41:53.926Z,99.36
2023-04-20T23:44:20.979Z,99.27
2023-04-20T23:46:47.866Z,98.90
2023-04-20T23:49:14.724Z,98.86
2023-04-20T23:51:42.270Z,98.43
2023-04-20T23:54:09.183Z,98.17
2023-04-20T23:56:36.025Z,97.47
2023-04-20T23:59:02.982Z,97.50
